sensor_id;sensor_type;location;lat;lon;timestamp;pressure;altitude;pressure_sealevel;temperature;humidity
4167;BME280;2097;51.104;7.150;2023-03-14T00:01:09;96509.03;;;9.61;100.00
4167;BME280;2097;51.104;7.150;2023-03-14T00:03:36;96495.38;;;9.59;100.00
4167;BME280;2097;51.104;7.150;2023-03-14T00:06:04;96491.31;;;9.56;100.00
4167;BME280;2097;51.104;7.150;2023-03-14T00:08:32;96488.72;;;9.56;100.00
4167;BME280;2097;51.104;7.150;2023-03-14T00:11:04;96474.56;;;9.60;100.00
4167;BME280;2097;51.104;7.150;2023-03-14T00:13:31;96473.16;;;9.66;100.00
4167;BME280;2097;51.104;7.150;2023-03-14T00:16:02;96471.94;;;9.70;100.00
4167;BME280;2097;51.104;7.150;2023-03-14T00:18:28;96479.44;;;9.73;100.00
4167;BME280;2097;51.104;7.150;2023-03-14T00:20:59;96500.69;;;9.76;100.00
4167;BME280;2097;51.104;7.150;2023-03-14T00:23:27;96517.72;;;9.79;100.00
4167;BME280;2097;51.104;7.150;2023-03-14T00:25:58;96538.00;;;9.83;100.00
4167;BME280;2097;51.104;7.150;2023-03-14T00:28:25;96537.75;;;9.86;100.00
4167;BME280;2097;51.104;7.150;2023-03-14T00:30:52;96532.13;;;9.91;100.00
4167;BME280;2097;51.104;7.150;2023-03-14T00:33:19;96539.63;;;9.94;100.00
4167;BME280;2097;51.104;7.150;2023-03-14T00:35:52;96533.50;;;9.95;100.00
4167;BME280;2097;51.104;7.150;2023-03-14T00:38:19;96534.16;;;9.97;100.00
4167;BME280;2097;51.104;7.150;2023-03-14T00:40:46;96522.59;;;10.01;100.00
4167;BME280;2097;51.104;7.150;2023-03-14T00:43:14;96507.72;;;10.03;100.00
4167;BME280;2097;51.104;7.150;2023-03-14T00:45:41;96500.63;;;10.05;100.00
4167;BME280;2097;51.104;7.150;2023-03-14T00:48:08;96503.22;;;10.05;100.00
4167;BME280;2097;51.104;7.150;2023-03-14T00:50:35;96507.47;;;10.06;100.00
4167;BME280;2097;51.104;7.150;2023-03-14T00:53:02;96500.38;;;10.08;100.00
4167;BME280;2097;51.104;7.150;2023-03-14T00:55:29;96494.06;;;10.10;100.00
4167;BME280;2097;51.104;7.150;2023-03-14T00:57:55;96495.69;;;10.11;100.00
4167;BME280;2097;51.104;7.150;2023-03-14T01:00:24;96493.94;;;10.12;100.00
4167;BME280;2097;51.104;7.150;2023-03-14T01:02:50;96497.22;;;10.14;100.00
4167;BME280;2097;51.104;7.150;2023-03-14T01:05:17;96490.25;;;10.14;100.00
4167;BME280;2097;51.104;7.150;2023-03-14T01:07:44;96483.28;;;10.15;100.00
4167;BME280;2097;51.104;7.150;2023-03-14T01:10:11;96478.13;;;10.15;100.00
4167;BME280;2097;51.104;7.150;2023-03-14T01:12:37;96502.00;;;10.09;100.00
4167;BME280;2097;51.104;7.150;2023-03-14T01:15:05;96573.63;;;10.00;100.00
4167;BME280;2097;51.104;7.150;2023-03-14T01:17:33;96578.53;;;9.75;100.00
4167;BME280;2097;51.104;7.150;2023-03-14T01:20:00;96568.28;;;9.07;100.00
4167;BME280;2097;51.104;7.150;2023-03-14T01:22:30;96559.13;;;8.54;100.00
4167;BME280;2097;51.104;7.150;2023-03-14T01:24:57;96560.81;;;8.35;100.00
4167;BME280;2097;51.104;7.150;2023-03-14T01:27:23;96540.63;;;8.19;100.00
4167;BME280;2097;51.104;7.150;2023-03-14T01:29:51;96541.31;;;8.01;100.00
4167;BME280;2097;51.104;7.150;2023-03-14T01:32:18;96556.25;;;7.97;100.00
4167;BME280;2097;51.104;7.150;2023-03-14T01:34:46;96539.88;;;7.88;100.00
4167;BME280;2097;51.104;7.150;2023-03-14T01:37:12;96514.44;;;7.83;100.00
4167;BME280;2097;51.104;7.150;2023-03-14T01:39:39;96510.34;;;7.81;100.00
4167;BME280;2097;51.104;7.150;2023-03-14T01:42:06;96508.72;;;7.80;100.00
4167;BME280;2097;51.104;7.150;2023-03-14T01:44:47;96507.91;;;7.79;100.00
4167;BME280;2097;51.104;7.150;2023-03-14T01:47:14;96505.19;;;7.81;100.00
4167;BME280;2097;51.104;7.150;2023-03-14T01:49:41;96503.31;;;7.83;100.00
4167;BME280;2097;51.104;7.150;2023-03-14T01:52:12;96515.28;;;7.84;100.00
4167;BME280;2097;51.104;7.150;2023-03-14T01:54:41;96509.16;;;7.85;100.00
4167;BME280;2097;51.104;7.150;2023-03-14T01:57:12;96502.22;;;7.85;100.00
4167;BME280;2097;51.104;7.150;2023-03-14T01:59:43;96490.25;;;7.84;100.00
4167;BME280;2097;51.104;7.150;2023-03-14T02:02:12;96390.06;;;7.18;100.00
4167;BME280;2097;51.104;7.150;2023-03-14T02:04:40;96488.75;;;7.82;100.00
4167;BME280;2097;51.104;7.150;2023-03-14T02:07:12;96487.03;;;7.82;100.00
4167;BME280;2097;51.104;7.150;2023-03-14T02:09:40;96473.34;;;7.71;100.00
4167;BME280;2097;51.104;7.150;2023-03-14T02:12:08;96489.47;;;7.84;100.00
4167;BME280;2097;51.104;7.150;2023-03-14T02:14:37;96492.72;;;7.86;100.00
4167;BME280;2097;51.104;7.150;2023-03-14T02:17:06;96494.38;;;7.87;100.00
4167;BME280;2097;51.104;7.150;2023-03-14T02:19:50;96485.69;;;7.88;100.00
4167;BME280;2097;51.104;7.150;2023-03-14T02:22:23;96478.63;;;7.89;100.00
4167;BME280;2097;51.104;7.150;2023-03-14T02:24:58;96485.28;;;7.92;100.00
4167;BME280;2097;51.104;7.150;2023-03-14T02:27:30;96476.47;;;7.94;100.00
4167;BME280;2097;51.104;7.150;2023-03-14T02:30:01;96494.03;;;8.00;100.00
4167;BME280;2097;51.104;7.150;2023-03-14T02:32:30;96491.84;;;8.05;100.00
4167;BME280;2097;51.104;7.150;2023-03-14T02:35:00;96489.84;;;8.09;100.00
4167;BME280;2097;51.104;7.150;2023-03-14T02:37:33;96490.66;;;8.09;100.00
4167;BME280;2097;51.104;7.150;2023-03-14T02:40:03;96483.59;;;8.11;100.00
4167;BME280;2097;51.104;7.150;2023-03-14T02:42:32;96484.53;;;8.10;100.00
4167;BME280;2097;51.104;7.150;2023-03-14T02:45:35;96485.50;;;8.09;100.00
4167;BME280;2097;51.104;7.150;2023-03-14T02:48:06;96471.88;;;8.07;100.00
4167;BME280;2097;51.104;7.150;2023-03-14T02:50:34;96467.66;;;8.06;100.00
4167;BME280;2097;51.104;7.150;2023-03-14T02:53:01;96473.78;;;8.05;100.00
4167;BME280;2097;51.104;7.150;2023-03-14T02:55:27;96473.78;;;8.05;100.00
4167;BME280;2097;51.104;7.150;2023-03-14T02:57:56;96471.47;;;8.02;100.00
4167;BME280;2097;51.104;7.150;2023-03-14T03:00:23;96472.41;;;8.01;100.00
4167;BME280;2097;51.104;7.150;2023-03-14T03:02:49;96472.69;;;7.98;100.00
4167;BME280;2097;51.104;7.150;2023-03-14T03:05:16;96471.06;;;7.97;100.00
4167;BME280;2097;51.104;7.150;2023-03-14T03:07:43;96458.41;;;7.94;100.00
4167;BME280;2097;51.104;7.150;2023-03-14T03:10:11;96459.34;;;7.93;100.00
4167;BME280;2097;51.104;7.150;2023-03-14T03:12:37;96453.50;;;7.91;100.00
4167;BME280;2097;51.104;7.150;2023-03-14T03:15:07;96450.91;;;7.91;100.00
4167;BME280;2097;51.104;7.150;2023-03-14T03:17:33;96449.28;;;7.90;100.00
4167;BME280;2097;51.104;7.150;2023-03-14T03:20:00;96448.59;;;7.88;100.00
4167;BME280;2097;51.104;7.150;2023-03-14T03:22:29;96444.47;;;7.86;100.00
4167;BME280;2097;51.104;7.150;2023-03-14T03:24:55;96436.88;;;7.85;100.00
4167;BME280;2097;51.104;7.150;2023-03-14T03:27:22;96437.81;;;7.84;100.00
4167;BME280;2097;51.104;7.150;2023-03-14T03:29:49;96435.09;;;7.85;100.00
4167;BME280;2097;51.104;7.150;2023-03-14T03:32:17;96425.59;;;7.86;100.00
4167;BME280;2097;51.104;7.150;2023-03-14T03:34:44;96430.50;;;7.88;100.00
4167;BME280;2097;51.104;7.150;2023-03-14T03:37:11;96418.28;;;7.90;100.00
4167;BME280;2097;51.104;7.150;2023-03-14T03:39:37;96417.34;;;7.91;100.00
4167;BME280;2097;51.104;7.150;2023-03-14T03:42:04;96412.88;;;7.93;100.00
4167;BME280;2097;51.104;7.150;2023-03-14T03:44:31;96409.34;;;7.94;100.00
4167;BME280;2097;51.104;7.150;2023-03-14T03:46:58;96409.78;;;7.99;100.00
4167;BME280;2097;51.104;7.150;2023-03-14T03:49:29;96414.53;;;8.04;100.00
4167;BME280;2097;51.104;7.150;2023-03-14T03:51:56;96419.44;;;8.07;100.00
4167;BME280;2097;51.104;7.150;2023-03-14T03:54:23;96411.44;;;8.10;100.00
4167;BME280;2097;51.104;7.150;2023-03-14T03:56:50;96407.72;;;7.93;100.00
4167;BME280;2097;51.104;7.150;2023-03-14T03:59:17;96412.63;;;8.06;100.00
4167;BME280;2097;51.104;7.150;2023-03-14T04:01:44;96417.41;;;8.10;100.00
4167;BME280;2097;51.104;7.150;2023-03-14T04:04:10;96409.78;;;8.09;100.00
4167;BME280;2097;51.104;7.150;2023-03-14T04:06:39;96403.00;;;8.08;100.00
4167;BME280;2097;51.104;7.150;2023-03-14T04:09:07;96281.69;;;7.29;100.00
4167;BME280;2097;51.104;7.150;2023-03-14T04:11:34;96401.47;;;8.05;100.00
4167;BME280;2097;51.104;7.150;2023-03-14T04:14:01;96403.09;;;8.06;100.00
4167;BME280;2097;51.104;7.150;2023-03-14T04:16:28;96402.31;;;8.06;100.00
4167;BME280;2097;51.104;7.150;2023-03-14T04:18:56;96403.09;;;8.06;100.00
4167;BME280;2097;51.104;7.150;2023-03-14T04:21:24;96401.34;;;8.07;100.00
4167;BME280;2097;51.104;7.150;2023-03-14T04:23:52;96390.34;;;8.05;100.00
4167;BME280;2097;51.104;7.150;2023-03-14T04:26:19;96391.97;;;8.06;100.00
4167;BME280;2097;51.104;7.150;2023-03-14T04:28:46;96393.88;;;8.04;100.00
4167;BME280;2097;51.104;7.150;2023-03-14T04:31:15;96389.50;;;8.04;100.00
4167;BME280;2097;51.104;7.150;2023-03-14T04:33:42;96380.69;;;7.97;100.00
4167;BME280;2097;51.104;7.150;2023-03-14T04:36:09;96382.72;;;8.03;100.00
4167;BME280;2097;51.104;7.150;2023-03-14T04:38:36;96374.28;;;8.01;100.00
4167;BME280;2097;51.104;7.150;2023-03-14T04:41:05;96370.09;;;8.00;100.00
4167;BME280;2097;51.104;7.150;2023-03-14T04:43:32;96368.31;;;8.01;100.00
4167;BME280;2097;51.104;7.150;2023-03-14T04:45:58;96372.69;;;8.00;100.00
4167;BME280;2097;51.104;7.150;2023-03-14T04:48:26;96365.88;;;7.99;100.00
4167;BME280;2097;51.104;7.150;2023-03-14T04:50:53;96359.06;;;7.98;100.00
4167;BME280;2097;51.104;7.150;2023-03-14T04:53:20;96358.13;;;7.99;100.00
4167;BME280;2097;51.104;7.150;2023-03-14T04:55:50;96364.25;;;7.98;100.00
4167;BME280;2097;51.104;7.150;2023-03-14T04:58:19;96357.03;;;8.02;100.00
4167;BME280;2097;51.104;7.150;2023-03-14T05:00:47;96350.09;;;8.02;100.00
4167;BME280;2097;51.104;7.150;2023-03-14T05:03:15;96347.38;;;8.04;100.00
4167;BME280;2097;51.104;7.150;2023-03-14T05:05:42;96331.63;;;7.97;100.00
4167;BME280;2097;51.104;7.150;2023-03-14T05:08:09;96350.09;;;8.02;100.00
4167;BME280;2097;51.104;7.150;2023-03-14T05:10:35;96341.41;;;8.03;100.00
4167;BME280;2097;51.104;7.150;2023-03-14T05:13:02;96336.22;;;8.03;100.00
4167;BME280;2097;51.104;7.150;2023-03-14T05:15:31;96332.69;;;8.04;100.00
4167;BME280;2097;51.104;7.150;2023-03-14T05:17:58;96343.03;;;8.04;100.00
4167;BME280;2097;51.104;7.150;2023-03-14T05:20:24;96342.22;;;8.04;100.00
4167;BME280;2097;51.104;7.150;2023-03-14T05:22:51;96329.44;;;8.02;100.00
4167;BME280;2097;51.104;7.150;2023-03-14T05:25:18;96318.44;;;8.00;100.00
4167;BME280;2097;51.104;7.150;2023-03-14T05:27:45;96321.03;;;8.00;100.00
4167;BME280;2097;51.104;7.150;2023-03-14T05:30:12;96322.94;;;7.98;100.00
4167;BME280;2097;51.104;7.150;2023-03-14T05:32:40;96307.97;;;7.92;100.00
4167;BME280;2097;51.104;7.150;2023-03-14T05:35:08;96311.66;;;7.99;100.00
4167;BME280;2097;51.104;7.150;2023-03-14T05:37:35;96307.28;;;8.00;100.00
4167;BME280;2097;51.104;7.150;2023-03-14T05:40:01;96312.31;;;8.01;100.00
4167;BME280;2097;51.104;7.150;2023-03-14T05:42:30;96314.09;;;8.01;100.00
4167;BME280;2097;51.104;7.150;2023-03-14T05:44:56;96305.38;;;8.02;100.00
4167;BME280;2097;51.104;7.150;2023-03-14T05:47:23;96312.03;;;8.04;100.00
4167;BME280;2097;51.104;7.150;2023-03-14T05:49:51;96305.25;;;8.03;100.00
4167;BME280;2097;51.104;7.150;2023-03-14T05:52:18;96310.28;;;8.05;100.00
4167;BME280;2097;51.104;7.150;2023-03-14T05:54:45;96310.28;;;8.05;100.00
4167;BME280;2097;51.104;7.150;2023-03-14T05:57:12;96305.94;;;8.05;100.00
4167;BME280;2097;51.104;7.150;2023-03-14T05:59:39;96237.41;;;7.64;100.00
4167;BME280;2097;51.104;7.150;2023-03-14T06:02:05;96304.97;;;8.06;100.00
4167;BME280;2097;51.104;7.150;2023-03-14T06:04:32;96294.66;;;8.06;100.00
4167;BME280;2097;51.104;7.150;2023-03-14T06:07:01;96315.03;;;8.09;100.00
4167;BME280;2097;51.104;7.150;2023-03-14T06:09:28;96313.16;;;8.11;100.00
4167;BME280;2097;51.104;7.150;2023-03-14T06:11:54;96309.59;;;8.12;100.00
4167;BME280;2097;51.104;7.150;2023-03-14T06:14:21;96302.97;;;8.10;100.00
4167;BME280;2097;51.104;7.150;2023-03-14T06:16:48;96304.91;;;8.17;100.00
4167;BME280;2097;51.104;7.150;2023-03-14T06:19:16;96308.97;;;8.20;100.00
4167;BME280;2097;51.104;7.150;2023-03-14T06:21:43;96314.00;;;8.21;100.00
4167;BME280;2097;51.104;7.150;2023-03-14T06:24:11;96313.06;;;8.22;100.00
4167;BME280;2097;51.104;7.150;2023-03-14T06:26:37;96315.75;;;8.21;100.00
4167;BME280;2097;51.104;7.150;2023-03-14T06:29:04;96311.13;;;8.15;100.00
4167;BME280;2097;51.104;7.150;2023-03-14T06:31:31;96314.00;;;8.21;100.00
4167;BME280;2097;51.104;7.150;2023-03-14T06:33:58;96308.84;;;8.21;100.00
4167;BME280;2097;51.104;7.150;2023-03-14T06:36:25;96309.66;;;8.22;100.00
4167;BME280;2097;51.104;7.150;2023-03-14T06:38:52;96305.31;;;8.22;100.00
4167;BME280;2097;51.104;7.150;2023-03-14T06:41:20;96308.56;;;8.24;100.00
4167;BME280;2097;51.104;7.150;2023-03-14T06:43:49;96304.78;;;8.28;100.00
4167;BME280;2097;51.104;7.150;2023-03-14T06:46:15;96310.63;;;8.30;100.00
4167;BME280;2097;51.104;7.150;2023-03-14T06:48:42;96314.56;;;8.34;100.00
4167;BME280;2097;51.104;7.150;2023-03-14T06:51:09;96316.72;;;8.39;100.00
4167;BME280;2097;51.104;7.150;2023-03-14T06:53:36;96316.47;;;8.42;100.00
4167;BME280;2097;51.104;7.150;2023-03-14T06:56:03;96316.31;;;8.43;100.00
4167;BME280;2097;51.104;7.150;2023-03-14T06:58:31;96315.53;;;8.43;100.00
4167;BME280;2097;51.104;7.150;2023-03-14T07:00:58;96317.28;;;8.42;100.00
4167;BME280;2097;51.104;7.150;2023-03-14T07:03:25;96319.59;;;8.45;100.00
4167;BME280;2097;51.104;7.150;2023-03-14T07:05:52;96296.88;;;8.39;100.00
4167;BME280;2097;51.104;7.150;2023-03-14T07:08:19;96318.94;;;8.53;100.00
4167;BME280;2097;51.104;7.150;2023-03-14T07:10:46;96322.72;;;8.58;100.00
4167;BME280;2097;51.104;7.150;2023-03-14T07:13:13;96319.31;;;8.58;100.00
4167;BME280;2097;51.104;7.150;2023-03-14T07:15:41;96326.25;;;8.67;100.00
4167;BME280;2097;51.104;7.150;2023-03-14T07:18:08;96325.19;;;8.69;100.00
4167;BME280;2097;51.104;7.150;2023-03-14T07:20:34;96322.44;;;8.71;100.00
4167;BME280;2097;51.104;7.150;2023-03-14T07:23:01;96329.38;;;8.70;100.00
4167;BME280;2097;51.104;7.150;2023-03-14T07:25:28;96334.56;;;8.70;100.00
4167;BME280;2097;51.104;7.150;2023-03-14T07:27:55;96323.53;;;8.68;100.00
4167;BME280;2097;51.104;7.150;2023-03-14T07:30:22;96340.09;;;8.75;100.00
4167;BME280;2097;51.104;7.150;2023-03-14T07:32:50;96337.13;;;8.80;100.00
4167;BME280;2097;51.104;7.150;2023-03-14T07:35:17;96335.75;;;8.85;100.00
4167;BME280;2097;51.104;7.150;2023-03-14T07:37:44;96339.28;;;8.94;100.00
4167;BME280;2097;51.104;7.150;2023-03-14T07:40:11;96345.25;;;9.03;100.00
4167;BME280;2097;51.104;7.150;2023-03-14T07:42:40;96346.50;;;9.09;100.00
4167;BME280;2097;51.104;7.150;2023-03-14T07:45:08;96346.84;;;9.14;100.00
4167;BME280;2097;51.104;7.150;2023-03-14T07:47:35;96346.47;;;9.18;100.00
4167;BME280;2097;51.104;7.150;2023-03-14T07:50:04;96350.81;;;9.18;100.00
4167;BME280;2097;51.104;7.150;2023-03-14T07:52:31;96353.28;;;9.19;100.00
4167;BME280;2097;51.104;7.150;2023-03-14T07:54:58;96353.38;;;9.18;100.00
4167;BME280;2097;51.104;7.150;2023-03-14T07:57:24;96355.69;;;9.21;100.00
4167;BME280;2097;51.104;7.150;2023-03-14T07:59:51;96351.22;;;9.23;100.00
4167;BME280;2097;51.104;7.150;2023-03-14T08:02:18;96351.75;;;9.26;100.00
4167;BME280;2097;51.104;7.150;2023-03-14T08:04:47;96350.66;;;9.29;100.00
4167;BME280;2097;51.104;7.150;2023-03-14T08:07:16;96361.00;;;9.29;100.00
4167;BME280;2097;51.104;7.150;2023-03-14T08:09:43;96363.88;;;9.26;100.00
4167;BME280;2097;51.104;7.150;2023-03-14T08:12:10;96363.34;;;9.22;100.00
4167;BME280;2097;51.104;7.150;2023-03-14T08:14:37;96365.38;;;9.19;100.00
4167;BME280;2097;51.104;7.150;2023-03-14T08:17:04;96367.41;;;9.25;100.00
4167;BME280;2097;51.104;7.150;2023-03-14T08:19:33;96372.59;;;9.25;100.00
4167;BME280;2097;51.104;7.150;2023-03-14T08:22:00;96365.91;;;9.32;100.00
4167;BME280;2097;51.104;7.150;2023-03-14T08:24:29;96367.25;;;9.36;100.00
4167;BME280;2097;51.104;7.150;2023-03-14T08:26:55;96366.16;;;9.38;100.00
4167;BME280;2097;51.104;7.150;2023-03-14T08:29:22;96375.25;;;9.42;100.00
4167;BME280;2097;51.104;7.150;2023-03-14T08:31:49;96375.94;;;9.44;100.00
4167;BME280;2097;51.104;7.150;2023-03-14T08:34:16;96372.56;;;9.44;100.00
4167;BME280;2097;51.104;7.150;2023-03-14T08:36:44;96308.22;;;9.12;100.00
4167;BME280;2097;51.104;7.150;2023-03-14T08:39:11;96368.97;;;9.54;100.00
4167;BME280;2097;51.104;7.150;2023-03-14T08:41:39;96365.81;;;9.60;100.00
4167;BME280;2097;51.104;7.150;2023-03-14T08:44:08;96375.59;;;9.66;100.00
4167;BME280;2097;51.104;7.150;2023-03-14T08:46:37;96376.13;;;9.70;100.00
4167;BME280;2097;51.104;7.150;2023-03-14T08:49:03;96385.66;;;9.69;100.00
4167;BME280;2097;51.104;7.150;2023-03-14T08:51:30;96382.28;;;9.69;100.00
4167;BME280;2097;51.104;7.150;2023-03-14T08:53:57;96373.16;;;9.65;100.00
4167;BME280;2097;51.104;7.150;2023-03-14T08:56:24;96381.25;;;9.79;100.00
4167;BME280;2097;51.104;7.150;2023-03-14T08:58:52;96384.00;;;9.78;100.00
4167;BME280;2097;51.104;7.150;2023-03-14T09:01:18;96396.56;;;9.73;100.00
4167;BME280;2097;51.104;7.150;2023-03-14T09:03:47;96408.97;;;9.69;100.00
4167;BME280;2097;51.104;7.150;2023-03-14T09:06:15;96396.56;;;9.73;100.00
4167;BME280;2097;51.104;7.150;2023-03-14T09:08:43;96377.53;;;9.64;100.00
4167;BME280;2097;51.104;7.150;2023-03-14T09:11:10;96398.31;;;9.72;100.00
4167;BME280;2097;51.104;7.150;2023-03-14T09:13:37;96396.16;;;9.68;100.00
4167;BME280;2097;51.104;7.150;2023-03-14T09:16:06;96406.00;;;9.64;100.00
4167;BME280;2097;51.104;7.150;2023-03-14T09:18:33;96405.03;;;9.65;100.00
4167;BME280;2097;51.104;7.150;2023-03-14T09:21:00;96416.50;;;9.63;100.00
4167;BME280;2097;51.104;7.150;2023-03-14T09:23:27;96408.03;;;9.61;100.00
4167;BME280;2097;51.104;7.150;2023-03-14T09:25:55;96424.41;;;9.61;100.00
4167;BME280;2097;51.104;7.150;2023-03-14T09:28:21;96422.22;;;9.57;100.00
4167;BME280;2097;51.104;7.150;2023-03-14T09:30:48;96388.22;;;9.33;100.00
4167;BME280;2097;51.104;7.150;2023-03-14T09:33:17;96420.50;;;9.38;100.00
4167;BME280;2097;51.104;7.150;2023-03-14T09:35:44;96435.03;;;9.49;100.00
4167;BME280;2097;51.104;7.150;2023-03-14T09:38:11;96442.81;;;9.49;100.00
4167;BME280;2097;51.104;7.150;2023-03-14T09:40:38;96446.50;;;9.46;100.00
4167;BME280;2097;51.104;7.150;2023-03-14T09:43:05;96459.59;;;9.45;100.00
4167;BME280;2097;51.104;7.150;2023-03-14T09:45:34;96481.38;;;9.42;100.00
4167;BME280;2097;51.104;7.150;2023-03-14T09:48:03;96490.66;;;9.26;100.00
4167;BME280;2097;51.104;7.150;2023-03-14T09:50:36;96503.16;;;8.93;100.00
4167;BME280;2097;51.104;7.150;2023-03-14T09:53:08;96513.19;;;8.67;100.00
4167;BME280;2097;51.104;7.150;2023-03-14T09:55:36;96539.22;;;8.45;100.00
4167;BME280;2097;51.104;7.150;2023-03-14T09:58:09;96547.44;;;8.20;100.00
4167;BME280;2097;51.104;7.150;2023-03-14T10:00:38;96523.78;;;7.75;100.00
4167;BME280;2097;51.104;7.150;2023-03-14T10:03:26;96563.44;;;7.74;100.00
4167;BME280;2097;51.104;7.150;2023-03-14T10:05:57;96596.72;;;7.56;100.00
4167;BME280;2097;51.104;7.150;2023-03-14T10:08:24;96603.81;;;7.43;100.00
4167;BME280;2097;51.104;7.150;2023-03-14T10:10:51;96413.34;;;6.13;100.00
4167;BME280;2097;51.104;7.150;2023-03-14T10:13:20;96605.41;;;7.24;100.00
4167;BME280;2097;51.104;7.150;2023-03-14T10:15:52;96632.84;;;7.14;100.00
4167;BME280;2097;51.104;7.150;2023-03-14T10:18:20;96640.38;;;7.06;100.00
4167;BME280;2097;51.104;7.150;2023-03-14T10:20:51;96641.53;;;7.02;100.00
4167;BME280;2097;51.104;7.150;2023-03-14T10:23:30;96655.38;;;7.12;100.00
4167;BME280;2097;51.104;7.150;2023-03-14T10:26:03;96656.41;;;7.20;100.00
4167;BME280;2097;51.104;7.150;2023-03-14T10:28:32;96626.34;;;6.88;100.00
4167;BME280;2097;51.104;7.150;2023-03-14T10:31:00;96680.91;;;7.15;100.00
4167;BME280;2097;51.104;7.150;2023-03-14T10:33:28;96677.88;;;7.10;100.00
4167;BME280;2097;51.104;7.150;2023-03-14T10:35:57;96654.72;;;6.88;100.00
4167;BME280;2097;51.104;7.150;2023-03-14T10:38:27;96707.53;;;7.04;100.00
4167;BME280;2097;51.104;7.150;2023-03-14T10:40:56;96713.03;;;7.00;100.00
4167;BME280;2097;51.104;7.150;2023-03-14T10:43:25;96725.94;;;7.00;100.00
4167;BME280;2097;51.104;7.150;2023-03-14T10:45:55;96732.97;;;6.87;100.00
4167;BME280;2097;51.104;7.150;2023-03-14T10:48:30;96743.50;;;6.95;100.00
4167;BME280;2097;51.104;7.150;2023-03-14T10:51:03;96759.66;;;6.97;100.00
4167;BME280;2097;51.104;7.150;2023-03-14T10:53:42;96759.91;;;6.94;100.00
4167;BME280;2097;51.104;7.150;2023-03-14T10:56:14;96778.78;;;6.94;100.00
4167;BME280;2097;51.104;7.150;2023-03-14T10:58:42;96769.28;;;6.95;100.00
4167;BME280;2097;51.104;7.150;2023-03-14T11:01:26;96782.06;;;6.96;100.00
4167;BME280;2097;51.104;7.150;2023-03-14T11:04:00;96800.47;;;7.03;100.00
4167;BME280;2097;51.104;7.150;2023-03-14T11:06:34;96797.88;;;7.03;100.00
4167;BME280;2097;51.104;7.150;2023-03-14T11:09:07;96783.91;;;6.83;100.00
4167;BME280;2097;51.104;7.150;2023-03-14T11:11:39;96810.78;;;7.14;100.00
4167;BME280;2097;51.104;7.150;2023-03-14T11:14:18;96811.38;;;7.28;100.00
4167;BME280;2097;51.104;7.150;2023-03-14T11:16:53;96812.34;;;7.38;100.00
4167;BME280;2097;51.104;7.150;2023-03-14T11:19:32;96824.06;;;7.42;100.00
4167;BME280;2097;51.104;7.150;2023-03-14T11:22:06;96844.81;;;7.41;100.00
4167;BME280;2097;51.104;7.150;2023-03-14T11:24:47;96836.69;;;7.23;100.00
4167;BME280;2097;51.104;7.150;2023-03-14T11:27:22;96848.75;;;7.01;100.00
4167;BME280;2097;51.104;7.150;2023-03-14T11:29:54;96744.53;;;6.25;100.00
4167;BME280;2097;51.104;7.150;2023-03-14T11:32:34;96842.84;;;6.77;100.00
4167;BME280;2097;51.104;7.150;2023-03-14T11:35:07;96859.19;;;6.65;100.00
4167;BME280;2097;51.104;7.150;2023-03-14T11:37:46;96869.94;;;6.59;100.00
4167;BME280;2097;51.104;7.150;2023-03-14T11:40:16;96891.72;;;6.55;100.00
4167;BME280;2097;51.104;7.150;2023-03-14T11:42:48;96880.94;;;6.50;100.00
4167;BME280;2097;51.104;7.150;2023-03-14T11:45:20;96903.00;;;6.42;100.00
4167;BME280;2097;51.104;7.150;2023-03-14T11:48:05;96917.88;;;6.38;100.00
4167;BME280;2097;51.104;7.150;2023-03-14T11:50:36;96930.03;;;6.36;100.00
4167;BME280;2097;51.104;7.150;2023-03-14T11:53:08;96924.38;;;6.31;100.00
4167;BME280;2097;51.104;7.150;2023-03-14T11:55:37;96939.31;;;6.26;100.00
4167;BME280;2097;51.104;7.150;2023-03-14T11:58:14;96942.53;;;6.30;100.00
4167;BME280;2097;51.104;7.150;2023-03-14T12:00:43;96949.81;;;6.36;100.00
4167;BME280;2097;51.104;7.150;2023-03-14T12:03:14;96967.59;;;6.39;100.00
4167;BME280;2097;51.104;7.150;2023-03-14T12:05:50;96966.72;;;6.27;100.00
4167;BME280;2097;51.104;7.150;2023-03-14T12:08:43;96963.59;;;6.11;100.00
4167;BME280;2097;51.104;7.150;2023-03-14T12:11:32;96991.50;;;6.17;100.00
4167;BME280;2097;51.104;7.150;2023-03-14T12:14:01;96990.78;;;6.15;100.00
4167;BME280;2097;51.104;7.150;2023-03-14T12:16:38;96913.81;;;5.50;100.00
4167;BME280;2097;51.104;7.150;2023-03-14T12:19:29;97020.84;;;6.02;100.00
4167;BME280;2097;51.104;7.150;2023-03-14T12:22:00;97029.81;;;5.97;100.00
4167;BME280;2097;51.104;7.150;2023-03-14T12:24:30;97038.75;;;5.91;100.00
4167;BME280;2097;51.104;7.150;2023-03-14T12:27:00;97053.78;;;5.97;100.00
4167;BME280;2097;51.104;7.150;2023-03-14T12:29:29;97042.25;;;5.90;100.00
4167;BME280;2097;51.104;7.150;2023-03-14T12:32:23;97075.00;;;6.01;100.00
4167;BME280;2097;51.104;7.150;2023-03-14T12:34:51;97083.22;;;5.93;100.00
4167;BME280;2097;51.104;7.150;2023-03-14T12:37:25;97093.94;;;5.87;100.00
4167;BME280;2097;51.104;7.150;2023-03-14T12:40:06;97101.25;;;5.81;100.00
4167;BME280;2097;51.104;7.150;2023-03-14T12:42:54;97111.81;;;5.76;100.00
4167;BME280;2097;51.104;7.150;2023-03-14T12:45:27;97113.50;;;5.77;100.00
4167;BME280;2097;51.104;7.150;2023-03-14T12:48:09;97130.94;;;5.72;100.00
4167;BME280;2097;51.104;7.150;2023-03-14T12:50:53;97146.47;;;5.71;100.00
4167;BME280;2097;51.104;7.150;2023-03-14T12:56:25;97163.72;;;5.57;100.00
4167;BME280;2097;51.104;7.150;2023-03-14T12:59:09;97163.84;;;5.55;100.00
4167;BME280;2097;51.104;7.150;2023-03-14T13:01:46;97174.75;;;5.58;100.00
4167;BME280;2097;51.104;7.150;2023-03-14T13:04:14;97181.50;;;5.73;100.00
4167;BME280;2097;51.104;7.150;2023-03-14T13:06:52;97195.91;;;6.02;100.00
4167;BME280;2097;51.104;7.150;2023-03-14T13:12:28;97203.97;;;6.60;100.00
4167;BME280;2097;51.104;7.150;2023-03-14T13:14:59;97205.84;;;6.71;100.00
4167;BME280;2097;51.104;7.150;2023-03-14T13:17:32;97209.75;;;6.88;100.00
4167;BME280;2097;51.104;7.150;2023-03-14T13:20:02;97220.25;;;6.98;100.00
4167;BME280;2097;51.104;7.150;2023-03-14T13:22:33;97220.84;;;7.14;100.00
4167;BME280;2097;51.104;7.150;2023-03-14T13:25:03;97225.44;;;7.34;100.00
4167;BME280;2097;51.104;7.150;2023-03-14T13:27:32;97238.13;;;7.37;100.00
4167;BME280;2097;51.104;7.150;2023-03-14T13:30:06;97214.69;;;7.04;100.00
4167;BME280;2097;51.104;7.150;2023-03-14T13:32:43;97248.34;;;6.90;100.00
4167;BME280;2097;51.104;7.150;2023-03-14T13:35:16;97209.72;;;6.26;100.00
4167;BME280;2097;51.104;7.150;2023-03-14T13:37:42;97270.56;;;6.41;100.00
4167;BME280;2097;51.104;7.150;2023-03-14T13:40:29;97287.50;;;6.19;100.00